sensor_id;sensor_type;location;lat;lon;timestamp;P1;durP1;ratioP1;P2;durP2;ratioP2
15153;SDS011;7677;41.896;25.004;2023-05-09T00:01:28;3.93;;;3.57;;
15153;SDS011;7677;41.896;25.004;2023-05-09T00:03:56;3.50;;;3.20;;
15153;SDS011;7677;41.896;25.004;2023-05-09T00:06:25;6.27;;;4.13;;
15153;SDS011;7677;41.896;25.004;2023-05-09T00:08:53;5.07;;;3.80;;
15153;SDS011;7677;41.896;25.004;2023-05-09T00:11:20;3.53;;;3.17;;
15153;SDS011;7677;41.896;25.004;2023-05-09T00:13:48;4.40;;;4.00;;
15153;SDS011;7677;41.896;25.004;2023-05-09T00:19:03;15.77;;;8.77;;
15153;SDS011;7677;41.896;25.004;2023-05-09T00:21:32;16.70;;;10.20;;
15153;SDS011;7677;41.896;25.004;2023-05-09T00:24:00;7.97;;;6.13;;
15153;SDS011;7677;41.896;25.004;2023-05-09T00:26:27;6.50;;;5.70;;
15153;SDS011;7677;41.896;25.004;2023-05-09T00:28:54;8.37;;;6.93;;
15153;SDS011;7677;41.896;25.004;2023-05-09T00:31:22;8.20;;;6.97;;
15153;SDS011;7677;41.896;25.004;2023-05-09T00:33:49;7.93;;;6.53;;
15153;SDS011;7677;41.896;25.004;2023-05-09T00:36:16;9.57;;;6.93;;
15153;SDS011;7677;41.896;25.004;2023-05-09T00:38:45;10.13;;;6.87;;
15153;SDS011;7677;41.896;25.004;2023-05-09T00:41:12;9.77;;;7.43;;
15153;SDS011;7677;41.896;25.004;2023-05-09T00:43:40;10.23;;;7.37;;
15153;SDS011;7677;41.896;25.004;2023-05-09T00:46:07;8.27;;;6.87;;
15153;SDS011;7677;41.896;25.004;2023-05-09T00:48:34;11.33;;;7.73;;
15153;SDS011;7677;41.896;25.004;2023-05-09T00:51:01;12.63;;;8.80;;
15153;SDS011;7677;41.896;25.004;2023-05-09T00:53:29;11.93;;;8.87;;
15153;SDS011;7677;41.896;25.004;2023-05-09T00:55:58;11.17;;;7.97;;
15153;SDS011;7677;41.896;25.004;2023-05-09T00:58:26;12.33;;;9.13;;
15153;SDS011;7677;41.896;25.004;2023-05-09T01:00:54;10.20;;;8.17;;
15153;SDS011;7677;41.896;25.004;2023-05-09T01:03:21;11.70;;;9.17;;
15153;SDS011;7677;41.896;25.004;2023-05-09T01:05:53;13.67;;;9.63;;
15153;SDS011;7677;41.896;25.004;2023-05-09T01:08:26;11.10;;;8.73;;
15153;SDS011;7677;41.896;25.004;2023-05-09T01:11:05;13.23;;;9.13;;
15153;SDS011;7677;41.896;25.004;2023-05-09T01:13:37;14.13;;;9.07;;
15153;SDS011;7677;41.896;25.004;2023-05-09T01:16:11;8.37;;;6.77;;
15153;SDS011;7677;41.896;25.004;2023-05-09T01:18:45;8.70;;;6.63;;
15153;SDS011;7677;41.896;25.004;2023-05-09T01:21:19;8.73;;;6.20;;
15153;SDS011;7677;41.896;25.004;2023-05-09T01:23:55;8.37;;;6.73;;
15153;SDS011;7677;41.896;25.004;2023-05-09T01:26:34;9.23;;;6.87;;
15153;SDS011;7677;41.896;25.004;2023-05-09T01:29:19;8.07;;;6.43;;
15153;SDS011;7677;41.896;25.004;2023-05-09T01:32:03;7.80;;;6.13;;
15153;SDS011;7677;41.896;25.004;2023-05-09T01:34:36;9.47;;;6.93;;
15153;SDS011;7677;41.896;25.004;2023-05-09T01:37:04;9.13;;;6.90;;
15153;SDS011;7677;41.896;25.004;2023-05-09T01:39:33;9.13;;;6.83;;
15153;SDS011;7677;41.896;25.004;2023-05-09T01:42:01;9.67;;;7.40;;
15153;SDS011;7677;41.896;25.004;2023-05-09T01:44:31;7.63;;;6.13;;
15153;SDS011;7677;41.896;25.004;2023-05-09T01:47:03;7.87;;;6.33;;
15153;SDS011;7677;41.896;25.004;2023-05-09T01:49:32;7.80;;;6.77;;
15153;SDS011;7677;41.896;25.004;2023-05-09T01:52:02;8.33;;;6.70;;
15153;SDS011;7677;41.896;25.004;2023-05-09T01:54:31;7.67;;;6.13;;
15153;SDS011;7677;41.896;25.004;2023-05-09T01:56:59;7.60;;;6.37;;
15153;SDS011;7677;41.896;25.004;2023-05-09T01:59:27;7.47;;;6.33;;
15153;SDS011;7677;41.896;25.004;2023-05-09T02:01:56;6.40;;;5.70;;
15153;SDS011;7677;41.896;25.004;2023-05-09T02:04:23;7.73;;;6.13;;
15153;SDS011;7677;41.896;25.004;2023-05-09T02:06:51;7.93;;;6.20;;
15153;SDS011;7677;41.896;25.004;2023-05-09T02:12:09;9.60;;;6.33;;
15153;SDS011;7677;41.896;25.004;2023-05-09T02:14:36;7.40;;;6.07;;
15153;SDS011;7677;41.896;25.004;2023-05-09T02:17:05;11.23;;;6.17;;
15153;SDS011;7677;41.896;25.004;2023-05-09T02:19:34;9.10;;;7.00;;
15153;SDS011;7677;41.896;25.004;2023-05-09T02:22:02;9.33;;;6.57;;
15153;SDS011;7677;41.896;25.004;2023-05-09T02:24:30;14.03;;;8.70;;
15153;SDS011;7677;41.896;25.004;2023-05-09T02:26:58;14.33;;;8.77;;
15153;SDS011;7677;41.896;25.004;2023-05-09T02:29:27;10.90;;;8.87;;
15153;SDS011;7677;41.896;25.004;2023-05-09T02:32:02;13.17;;;9.10;;
15153;SDS011;7677;41.896;25.004;2023-05-09T02:34:32;13.23;;;9.10;;
15153;SDS011;7677;41.896;25.004;2023-05-09T02:37:00;12.17;;;9.47;;
15153;SDS011;7677;41.896;25.004;2023-05-09T02:39:28;11.63;;;8.57;;
15153;SDS011;7677;41.896;25.004;2023-05-09T02:41:56;13.00;;;8.70;;
15153;SDS011;7677;41.896;25.004;2023-05-09T02:44:31;11.07;;;8.67;;
15153;SDS011;7677;41.896;25.004;2023-05-09T02:46:58;10.57;;;7.93;;
15153;SDS011;7677;41.896;25.004;2023-05-09T02:49:26;12.07;;;8.07;;
15153;SDS011;7677;41.896;25.004;2023-05-09T02:51:55;11.63;;;8.47;;
15153;SDS011;7677;41.896;25.004;2023-05-09T02:54:22;12.93;;;9.13;;
15153;SDS011;7677;41.896;25.004;2023-05-09T02:56:49;11.83;;;8.47;;
15153;SDS011;7677;41.896;25.004;2023-05-09T02:59:17;12.67;;;8.33;;
15153;SDS011;7677;41.896;25.004;2023-05-09T03:01:44;11.87;;;8.20;;
15153;SDS011;7677;41.896;25.004;2023-05-09T03:04:11;10.10;;;7.63;;
15153;SDS011;7677;41.896;25.004;2023-05-09T03:06:39;11.50;;;8.90;;
15153;SDS011;7677;41.896;25.004;2023-05-09T03:09:07;15.83;;;9.40;;
15153;SDS011;7677;41.896;25.004;2023-05-09T03:11:35;11.47;;;8.73;;
15153;SDS011;7677;41.896;25.004;2023-05-09T03:14:02;11.80;;;8.77;;
15153;SDS011;7677;41.896;25.004;2023-05-09T03:16:30;12.83;;;8.50;;
15153;SDS011;7677;41.896;25.004;2023-05-09T03:18:57;9.50;;;8.20;;
15153;SDS011;7677;41.896;25.004;2023-05-09T03:21:25;16.23;;;10.80;;
15153;SDS011;7677;41.896;25.004;2023-05-09T03:23:52;11.33;;;9.30;;
15153;SDS011;7677;41.896;25.004;2023-05-09T03:26:21;11.20;;;9.20;;
15153;SDS011;7677;41.896;25.004;2023-05-09T03:28:48;13.07;;;9.20;;
15153;SDS011;7677;41.896;25.004;2023-05-09T03:31:15;12.70;;;9.83;;
15153;SDS011;7677;41.896;25.004;2023-05-09T03:33:42;12.90;;;9.00;;
15153;SDS011;7677;41.896;25.004;2023-05-09T03:36:09;14.33;;;10.17;;
15153;SDS011;7677;41.896;25.004;2023-05-09T03:38:37;17.53;;;10.07;;
15153;SDS011;7677;41.896;25.004;2023-05-09T03:41:04;12.97;;;8.97;;
15153;SDS011;7677;41.896;25.004;2023-05-09T03:43:33;14.57;;;9.20;;
15153;SDS011;7677;41.896;25.004;2023-05-09T03:46:00;14.20;;;9.23;;
15153;SDS011;7677;41.896;25.004;2023-05-09T03:48:28;13.20;;;8.97;;
15153;SDS011;7677;41.896;25.004;2023-05-09T03:50:55;17.93;;;9.47;;
15153;SDS011;7677;41.896;25.004;2023-05-09T03:53:22;16.57;;;9.90;;
15153;SDS011;7677;41.896;25.004;2023-05-09T03:55:49;18.73;;;11.33;;
15153;SDS011;7677;41.896;25.004;2023-05-09T03:58:16;19.00;;;10.43;;
15153;SDS011;7677;41.896;25.004;2023-05-09T04:03:42;15.83;;;10.80;;
15153;SDS011;7677;41.896;25.004;2023-05-09T04:06:09;16.37;;;11.20;;
15153;SDS011;7677;41.896;25.004;2023-05-09T04:08:36;16.53;;;11.33;;
15153;SDS011;7677;41.896;25.004;2023-05-09T04:11:03;16.93;;;11.73;;
15153;SDS011;7677;41.896;25.004;2023-05-09T04:13:32;15.37;;;11.00;;
15153;SDS011;7677;41.896;25.004;2023-05-09T04:15:59;18.43;;;12.00;;
15153;SDS011;7677;41.896;25.004;2023-05-09T04:18:28;18.73;;;11.23;;
15153;SDS011;7677;41.896;25.004;2023-05-09T04:20:56;17.00;;;10.90;;
15153;SDS011;7677;41.896;25.004;2023-05-09T04:23:23;18.47;;;12.13;;
15153;SDS011;7677;41.896;25.004;2023-05-09T04:25:50;19.03;;;12.67;;
15153;SDS011;7677;41.896;25.004;2023-05-09T04:28:18;15.30;;;10.83;;
15153;SDS011;7677;41.896;25.004;2023-05-09T04:30:46;13.43;;;10.60;;
15153;SDS011;7677;41.896;25.004;2023-05-09T04:33:13;15.10;;;10.57;;
15153;SDS011;7677;41.896;25.004;2023-05-09T04:35:42;14.87;;;9.57;;
15153;SDS011;7677;41.896;25.004;2023-05-09T04:38:10;18.17;;;11.20;;
15153;SDS011;7677;41.896;25.004;2023-05-09T04:40:37;17.57;;;10.90;;
15153;SDS011;7677;41.896;25.004;2023-05-09T04:43:04;14.40;;;10.87;;
15153;SDS011;7677;41.896;25.004;2023-05-09T04:45:31;17.03;;;11.50;;
15153;SDS011;7677;41.896;25.004;2023-05-09T04:47:59;15.57;;;10.67;;
15153;SDS011;7677;41.896;25.004;2023-05-09T04:50:26;14.80;;;10.07;;
15153;SDS011;7677;41.896;25.004;2023-05-09T04:52:54;16.07;;;10.70;;
15153;SDS011;7677;41.896;25.004;2023-05-09T04:55:22;15.43;;;11.40;;
15153;SDS011;7677;41.896;25.004;2023-05-09T04:57:49;15.27;;;10.47;;
15153;SDS011;7677;41.896;25.004;2023-05-09T05:00:16;14.60;;;10.13;;
15153;SDS011;7677;41.896;25.004;2023-05-09T05:02:44;13.67;;;11.17;;
15153;SDS011;7677;41.896;25.004;2023-05-09T05:05:11;15.83;;;11.20;;
15153;SDS011;7677;41.896;25.004;2023-05-09T05:07:38;15.27;;;11.37;;
15153;SDS011;7677;41.896;25.004;2023-05-09T05:10:07;12.53;;;10.57;;
15153;SDS011;7677;41.896;25.004;2023-05-09T05:12:35;17.30;;;11.90;;
15153;SDS011;7677;41.896;25.004;2023-05-09T05:15:03;16.33;;;10.37;;
15153;SDS011;7677;41.896;25.004;2023-05-09T05:17:30;16.80;;;11.50;;
15153;SDS011;7677;41.896;25.004;2023-05-09T05:19:58;16.37;;;10.47;;
15153;SDS011;7677;41.896;25.004;2023-05-09T05:22:26;18.30;;;12.37;;
15153;SDS011;7677;41.896;25.004;2023-05-09T05:24:53;16.47;;;10.93;;
15153;SDS011;7677;41.896;25.004;2023-05-09T05:27:22;15.03;;;11.83;;
15153;SDS011;7677;41.896;25.004;2023-05-09T05:29:49;16.80;;;11.33;;
15153;SDS011;7677;41.896;25.004;2023-05-09T05:32:16;15.47;;;10.87;;
15153;SDS011;7677;41.896;25.004;2023-05-09T05:34:57;15.17;;;10.63;;
15153;SDS011;7677;41.896;25.004;2023-05-09T05:37:26;16.27;;;11.47;;
15153;SDS011;7677;41.896;25.004;2023-05-09T05:39:53;15.17;;;11.10;;
15153;SDS011;7677;41.896;25.004;2023-05-09T05:42:22;17.10;;;11.43;;
15153;SDS011;7677;41.896;25.004;2023-05-09T05:44:49;17.07;;;11.37;;
15153;SDS011;7677;41.896;25.004;2023-05-09T05:47:17;16.83;;;10.30;;
15153;SDS011;7677;41.896;25.004;2023-05-09T05:49:44;15.57;;;10.40;;
15153;SDS011;7677;41.896;25.004;2023-05-09T05:52:19;15.70;;;10.70;;
15153;SDS011;7677;41.896;25.004;2023-05-09T05:54:46;15.97;;;11.03;;
15153;SDS011;7677;41.896;25.004;2023-05-09T05:57:13;15.03;;;10.80;;
15153;SDS011;7677;41.896;25.004;2023-05-09T05:59:42;17.23;;;11.23;;
15153;SDS011;7677;41.896;25.004;2023-05-09T06:02:09;18.30;;;12.77;;
15153;SDS011;7677;41.896;25.004;2023-05-09T06:04:36;19.10;;;11.53;;
15153;SDS011;7677;41.896;25.004;2023-05-09T06:07:04;15.40;;;11.40;;
15153;SDS011;7677;41.896;25.004;2023-05-09T06:09:32;21.53;;;11.97;;
15153;SDS011;7677;41.896;25.004;2023-05-09T06:12:01;18.57;;;12.97;;
15153;SDS011;7677;41.896;25.004;2023-05-09T06:14:30;25.07;;;15.97;;
15153;SDS011;7677;41.896;25.004;2023-05-09T06:16:58;23.63;;;14.97;;
15153;SDS011;7677;41.896;25.004;2023-05-09T06:19:26;24.50;;;15.07;;
15153;SDS011;7677;41.896;25.004;2023-05-09T06:21:55;24.37;;;13.90;;
15153;SDS011;7677;41.896;25.004;2023-05-09T06:24:22;24.03;;;14.33;;
15153;SDS011;7677;41.896;25.004;2023-05-09T06:26:49;21.60;;;13.80;;
15153;SDS011;7677;41.896;25.004;2023-05-09T06:29:16;26.23;;;14.33;;
15153;SDS011;7677;41.896;25.004;2023-05-09T06:31:43;25.13;;;16.50;;
15153;SDS011;7677;41.896;25.004;2023-05-09T06:34:12;17.33;;;12.20;;
15153;SDS011;7677;41.896;25.004;2023-05-09T06:36:39;17.40;;;11.37;;
15153;SDS011;7677;41.896;25.004;2023-05-09T06:39:06;18.23;;;12.27;;
15153;SDS011;7677;41.896;25.004;2023-05-09T06:41:33;17.33;;;12.90;;
15153;SDS011;7677;41.896;25.004;2023-05-09T06:44:01;17.00;;;10.83;;
15153;SDS011;7677;41.896;25.004;2023-05-09T06:46:28;13.70;;;10.77;;
15153;SDS011;7677;41.896;25.004;2023-05-09T06:48:55;17.23;;;11.47;;
15153;SDS011;7677;41.896;25.004;2023-05-09T06:51:24;15.90;;;10.87;;
15153;SDS011;7677;41.896;25.004;2023-05-09T06:53:51;13.37;;;9.80;;
15153;SDS011;7677;41.896;25.004;2023-05-09T06:56:19;17.80;;;12.07;;
15153;SDS011;7677;41.896;25.004;2023-05-09T06:58:47;17.57;;;10.60;;
15153;SDS011;7677;41.896;25.004;2023-05-09T07:01:14;17.77;;;12.27;;
15153;SDS011;7677;41.896;25.004;2023-05-09T07:03:42;17.47;;;11.13;;
15153;SDS011;7677;41.896;25.004;2023-05-09T07:06:10;24.00;;;15.47;;
15153;SDS011;7677;41.896;25.004;2023-05-09T07:08:39;53.73;;;27.93;;
15153;SDS011;7677;41.896;25.004;2023-05-09T07:11:06;55.00;;;29.10;;
15153;SDS011;7677;41.896;25.004;2023-05-09T07:13:34;23.67;;;15.07;;
15153;SDS011;7677;41.896;25.004;2023-05-09T07:16:01;18.90;;;10.83;;
15153;SDS011;7677;41.896;25.004;2023-05-09T07:18:28;14.20;;;10.97;;
15153;SDS011;7677;41.896;25.004;2023-05-09T07:20:55;15.97;;;11.03;;
15153;SDS011;7677;41.896;25.004;2023-05-09T07:23:22;14.20;;;10.33;;
15153;SDS011;7677;41.896;25.004;2023-05-09T07:25:56;16.90;;;11.53;;
15153;SDS011;7677;41.896;25.004;2023-05-09T07:28:24;14.83;;;10.20;;
15153;SDS011;7677;41.896;25.004;2023-05-09T07:30:51;18.63;;;12.57;;
15153;SDS011;7677;41.896;25.004;2023-05-09T07:33:18;17.60;;;12.40;;
15153;SDS011;7677;41.896;25.004;2023-05-09T07:35:45;13.87;;;10.17;;
15153;SDS011;7677;41.896;25.004;2023-05-09T07:38:13;15.27;;;10.37;;
15153;SDS011;7677;41.896;25.004;2023-05-09T07:40:40;16.23;;;10.30;;
15153;SDS011;7677;41.896;25.004;2023-05-09T07:43:09;19.90;;;11.97;;
15153;SDS011;7677;41.896;25.004;2023-05-09T07:45:36;24.40;;;14.23;;
15153;SDS011;7677;41.896;25.004;2023-05-09T07:48:03;21.57;;;15.53;;
15153;SDS011;7677;41.896;25.004;2023-05-09T07:50:31;21.70;;;12.87;;
15153;SDS011;7677;41.896;25.004;2023-05-09T07:52:58;16.37;;;11.33;;
15153;SDS011;7677;41.896;25.004;2023-05-09T07:55:26;15.27;;;10.27;;
15153;SDS011;7677;41.896;25.004;2023-05-09T07:57:53;13.00;;;10.10;;
15153;SDS011;7677;41.896;25.004;2023-05-09T08:00:22;12.30;;;9.23;;
15153;SDS011;7677;41.896;25.004;2023-05-09T08:02:49;12.53;;;9.67;;
15153;SDS011;7677;41.896;25.004;2023-05-09T08:05:17;21.27;;;13.87;;
15153;SDS011;7677;41.896;25.004;2023-05-09T08:07:44;12.33;;;9.23;;
15153;SDS011;7677;41.896;25.004;2023-05-09T08:10:12;10.00;;;7.17;;
15153;SDS011;7677;41.896;25.004;2023-05-09T08:12:39;10.27;;;6.47;;
15153;SDS011;7677;41.896;25.004;2023-05-09T08:15:06;9.03;;;6.83;;
15153;SDS011;7677;41.896;25.004;2023-05-09T08:17:35;8.07;;;6.50;;
15153;SDS011;7677;41.896;25.004;2023-05-09T08:20:03;8.93;;;7.40;;
15153;SDS011;7677;41.896;25.004;2023-05-09T08:22:33;6.93;;;6.20;;
15153;SDS011;7677;41.896;25.004;2023-05-09T08:25:00;9.10;;;6.50;;
15153;SDS011;7677;41.896;25.004;2023-05-09T08:27:27;10.53;;;6.83;;
15153;SDS011;7677;41.896;25.004;2023-05-09T08:29:54;8.20;;;6.30;;
15153;SDS011;7677;41.896;25.004;2023-05-09T08:32:21;8.93;;;6.90;;
15153;SDS011;7677;41.896;25.004;2023-05-09T08:34:50;10.83;;;6.87;;
15153;SDS011;7677;41.896;25.004;2023-05-09T08:37:17;11.20;;;6.97;;
15153;SDS011;7677;41.896;25.004;2023-05-09T08:39:45;9.10;;;7.50;;
15153;SDS011;7677;41.896;25.004;2023-05-09T08:42:12;8.50;;;7.07;;
15153;SDS011;7677;41.896;25.004;2023-05-09T08:44:44;10.47;;;7.23;;
15153;SDS011;7677;41.896;25.004;2023-05-09T08:47:11;8.47;;;6.93;;
15153;SDS011;7677;41.896;25.004;2023-05-09T08:49:39;7.57;;;6.67;;
15153;SDS011;7677;41.896;25.004;2023-05-09T08:52:07;8.77;;;6.67;;
15153;SDS011;7677;41.896;25.004;2023-05-09T08:54:35;13.03;;;8.37;;
15153;SDS011;7677;41.896;25.004;2023-05-09T08:57:03;8.50;;;7.00;;
15153;SDS011;7677;41.896;25.004;2023-05-09T08:59:30;8.97;;;7.00;;
15153;SDS011;7677;41.896;25.004;2023-05-09T09:01:59;8.57;;;7.53;;
15153;SDS011;7677;41.896;25.004;2023-05-09T09:04:27;9.17;;;6.90;;
15153;SDS011;7677;41.896;25.004;2023-05-09T09:06:54;11.20;;;7.73;;
15153;SDS011;7677;41.896;25.004;2023-05-09T09:09:23;11.10;;;7.43;;
15153;SDS011;7677;41.896;25.004;2023-05-09T09:11:57;11.90;;;7.17;;
15153;SDS011;7677;41.896;25.004;2023-05-09T09:14:25;11.77;;;8.57;;
15153;SDS011;7677;41.896;25.004;2023-05-09T09:16:53;10.37;;;7.77;;
15153;SDS011;7677;41.896;25.004;2023-05-09T09:19:21;11.67;;;9.57;;
15153;SDS011;7677;41.896;25.004;2023-05-09T09:22:06;12.23;;;8.30;;
15153;SDS011;7677;41.896;25.004;2023-05-09T09:24:36;10.17;;;6.53;;
15153;SDS011;7677;41.896;25.004;2023-05-09T09:27:04;8.53;;;7.20;;
15153;SDS011;7677;41.896;25.004;2023-05-09T09:29:45;10.80;;;8.20;;
15153;SDS011;7677;41.896;25.004;2023-05-09T09:32:12;9.67;;;7.50;;
15153;SDS011;7677;41.896;25.004;2023-05-09T09:34:39;8.17;;;6.80;;
15153;SDS011;7677;41.896;25.004;2023-05-09T09:37:06;16.50;;;7.93;;
15153;SDS011;7677;41.896;25.004;2023-05-09T09:39:35;10.13;;;7.37;;
15153;SDS011;7677;41.896;25.004;2023-05-09T09:42:09;9.50;;;7.40;;
15153;SDS011;7677;41.896;25.004;2023-05-09T09:44:36;13.20;;;7.93;;
15153;SDS011;7677;41.896;25.004;2023-05-09T09:47:04;10.00;;;6.67;;
15153;SDS011;7677;41.896;25.004;2023-05-09T09:49:35;7.93;;;6.47;;
15153;SDS011;7677;41.896;25.004;2023-05-09T09:52:02;10.57;;;7.90;;
15153;SDS011;7677;41.896;25.004;2023-05-09T09:54:30;10.50;;;7.67;;
15153;SDS011;7677;41.896;25.004;2023-05-09T09:56:59;12.10;;;7.73;;
15153;SDS011;7677;41.896;25.004;2023-05-09T09:59:27;12.43;;;8.30;;
15153;SDS011;7677;41.896;25.004;2023-05-09T10:01:57;13.20;;;8.43;;
15153;SDS011;7677;41.896;25.004;2023-05-09T10:04:26;10.70;;;8.40;;
15153;SDS011;7677;41.896;25.004;2023-05-09T10:06:55;14.57;;;9.70;;
15153;SDS011;7677;41.896;25.004;2023-05-09T10:09:24;21.30;;;10.20;;
15153;SDS011;7677;41.896;25.004;2023-05-09T10:11:53;11.50;;;9.40;;
15153;SDS011;7677;41.896;25.004;2023-05-09T10:14:23;18.13;;;12.23;;
15153;SDS011;7677;41.896;25.004;2023-05-09T10:16:53;18.53;;;13.37;;
15153;SDS011;7677;41.896;25.004;2023-05-09T10:19:21;20.33;;;13.30;;
15153;SDS011;7677;41.896;25.004;2023-05-09T10:21:50;27.13;;;16.00;;
15153;SDS011;7677;41.896;25.004;2023-05-09T10:24:21;15.40;;;11.03;;
15153;SDS011;7677;41.896;25.004;2023-05-09T10:27:00;15.07;;;11.07;;
15153;SDS011;7677;41.896;25.004;2023-05-09T10:29:34;14.27;;;10.27;;
15153;SDS011;7677;41.896;25.004;2023-05-09T10:32:05;16.43;;;11.27;;
15153;SDS011;7677;41.896;25.004;2023-05-09T10:34:38;15.23;;;10.50;;
15153;SDS011;7677;41.896;25.004;2023-05-09T10:37:07;20.90;;;14.23;;
15153;SDS011;7677;41.896;25.004;2023-05-09T10:39:34;11.43;;;9.27;;
15153;SDS011;7677;41.896;25.004;2023-05-09T10:42:02;11.40;;;8.73;;
15153;SDS011;7677;41.896;25.004;2023-05-09T10:44:30;14.43;;;10.67;;
15153;SDS011;7677;41.896;25.004;2023-05-09T10:47:00;14.07;;;9.20;;
15153;SDS011;7677;41.896;25.004;2023-05-09T10:49:28;17.43;;;10.03;;
15153;SDS011;7677;41.896;25.004;2023-05-09T10:51:56;18.00;;;10.13;;
15153;SDS011;7677;41.896;25.004;2023-05-09T10:54:26;11.90;;;9.27;;
15153;SDS011;7677;41.896;25.004;2023-05-09T10:56:56;17.70;;;10.63;;
15153;SDS011;7677;41.896;25.004;2023-05-09T10:59:33;12.83;;;9.30;;
15153;SDS011;7677;41.896;25.004;2023-05-09T11:02:03;16.67;;;11.20;;
15153;SDS011;7677;41.896;25.004;2023-05-09T11:04:51;17.10;;;11.17;;
15153;SDS011;7677;41.896;25.004;2023-05-09T11:07:38;14.97;;;11.07;;
15153;SDS011;7677;41.896;25.004;2023-05-09T11:10:07;13.43;;;10.07;;
15153;SDS011;7677;41.896;25.004;2023-05-09T11:15:21;11.50;;;7.67;;
15153;SDS011;7677;41.896;25.004;2023-05-09T11:18:03;11.63;;;7.93;;
15153;SDS011;7677;41.896;25.004;2023-05-09T11:20:32;11.60;;;9.00;;
15153;SDS011;7677;41.896;25.004;2023-05-09T11:23:02;15.87;;;11.80;;
15153;SDS011;7677;41.896;25.004;2023-05-09T11:25:29;14.77;;;10.03;;
15153;SDS011;7677;41.896;25.004;2023-05-09T11:27:57;11.27;;;8.87;;
15153;SDS011;7677;41.896;25.004;2023-05-09T11:30:34;9.07;;;6.80;;
15153;SDS011;7677;41.896;25.004;2023-05-09T11:33:05;8.30;;;6.13;;
15153;SDS011;7677;41.896;25.004;2023-05-09T11:35:33;10.70;;;7.10;;
15153;SDS011;7677;41.896;25.004;2023-05-09T11:38:03;15.80;;;8.77;;
15153;SDS011;7677;41.896;25.004;2023-05-09T11:40:32;9.83;;;7.57;;
15153;SDS011;7677;41.896;25.004;2023-05-09T11:43:00;18.23;;;9.80;;
15153;SDS011;7677;41.896;25.004;2023-05-09T11:45:28;10.97;;;7.27;;
15153;SDS011;7677;41.896;25.004;2023-05-09T11:47:56;9.67;;;6.80;;
15153;SDS011;7677;41.896;25.004;2023-05-09T11:50:26;9.90;;;7.73;;
15153;SDS011;7677;41.896;25.004;2023-05-09T11:52:54;10.60;;;7.87;;
15153;SDS011;7677;41.896;25.004;2023-05-09T11:55:21;14.60;;;9.23;;
15153;SDS011;7677;41.896;25.004;2023-05-09T11:57:49;11.23;;;8.27;;
15153;SDS011;7677;41.896;25.004;2023-05-09T12:00:19;10.73;;;8.90;;
15153;SDS011;7677;41.896;25.004;2023-05-09T12:02:48;13.77;;;10.17;;
15153;SDS011;7677;41.896;25.004;2023-05-09T12:05:16;21.43;;;13.57;;
15153;SDS011;7677;41.896;25.004;2023-05-09T12:07:47;19.37;;;11.17;;
15153;SDS011;7677;41.896;25.004;2023-05-09T12:10:15;24.53;;;12.60;;
15153;SDS011;7677;41.896;25.004;2023-05-09T12:12:45;16.40;;;10.57;;
15153;SDS011;7677;41.896;25.004;2023-05-09T12:15:13;11.43;;;8.67;;
15153;SDS011;7677;41.896;25.004;2023-05-09T12:17:41;11.17;;;8.40;;
15153;SDS011;7677;41.896;25.004;2023-05-09T12:20:09;12.83;;;8.97;;
15153;SDS011;7677;41.896;25.004;2023-05-09T12:22:36;12.67;;;9.50;;
15153;SDS011;7677;41.896;25.004;2023-05-09T12:25:06;16.43;;;11.67;;
15153;SDS011;7677;41.896;25.004;2023-05-09T12:27:36;14.50;;;10.97;;
15153;SDS011;7677;41.896;25.004;2023-05-09T12:30:04;13.63;;;9.93;;
15153;SDS011;7677;41.896;25.004;2023-05-09T12:32:34;11.43;;;8.83;;
15153;SDS011;7677;41.896;25.004;2023-05-09T12:35:03;13.80;;;11.33;;
15153;SDS011;7677;41.896;25.004;2023-05-09T12:37:32;16.50;;;11.60;;
15153;SDS011;7677;41.896;25.004;2023-05-09T12:40:00;13.60;;;10.23;;
15153;SDS011;7677;41.896;25.004;2023-05-09T12:42:30;14.63;;;11.27;;
15153;SDS011;7677;41.896;25.004;2023-05-09T12:45:00;13.90;;;9.83;;
15153;SDS011;7677;41.896;25.004;2023-05-09T12:47:28;12.67;;;9.13;;
15153;SDS011;7677;41.896;25.004;2023-05-09T12:49:56;16.47;;;9.13;;
15153;SDS011;7677;41.896;25.004;2023-05-09T12:52:24;10.60;;;8.40;;
15153;SDS011;7677;41.896;25.004;2023-05-09T12:54:52;10.17;;;8.17;;
15153;SDS011;7677;41.896;25.004;2023-05-09T12:57:20;15.83;;;10.90;;
15153;SDS011;7677;41.896;25.004;2023-05-09T12:59:49;15.90;;;11.00;;
15153;SDS011;7677;41.896;25.004;2023-05-09T13:02:17;10.13;;;8.00;;
15153;SDS011;7677;41.896;25.004;2023-05-09T13:04:44;14.60;;;7.60;;
15153;SDS011;7677;41.896;25.004;2023-05-09T13:07:12;12.53;;;9.10;;
15153;SDS011;7677;41.896;25.004;2023-05-09T13:09:53;19.83;;;11.13;;
15153;SDS011;7677;41.896;25.004;2023-05-09T13:12:22;17.67;;;12.40;;
15153;SDS011;7677;41.896;25.004;2023-05-09T13:17:39;16.27;;;11.27;;
15153;SDS011;7677;41.896;25.004;2023-05-09T13:20:07;15.07;;;11.10;;
15153;SDS011;7677;41.896;25.004;2023-05-09T13:22:34;17.20;;;10.47;;
15153;SDS011;7677;41.896;25.004;2023-05-09T13:25:02;16.57;;;11.93;;
15153;SDS011;7677;41.896;25.004;2023-05-09T13:27:29;17.80;;;11.73;;
15153;SDS011;7677;41.896;25.004;2023-05-09T13:29:56;12.70;;;10.60;;
15153;SDS011;7677;41.896;25.004;2023-05-09T13:32:32;13.13;;;10.03;;
15153;SDS011;7677;41.896;25.004;2023-05-09T13:34:59;10.13;;;8.90;;
15153;SDS011;7677;41.896;25.004;2023-05-09T13:37:26;11.50;;;8.73;;
15153;SDS011;7677;41.896;25.004;2023-05-09T13:42:46;10.10;;;7.67;;
15153;SDS011;7677;41.896;25.004;2023-05-09T13:45:14;10.80;;;8.27;;
15153;SDS011;7677;41.896;25.004;2023-05-09T13:47:42;10.33;;;8.40;;
15153;SDS011;7677;41.896;25.004;2023-05-09T13:50:10;10.13;;;8.77;;
15153;SDS011;7677;41.896;25.004;2023-05-09T13:52:38;9.87;;;8.17;;
15153;SDS011;7677;41.896;25.004;2023-05-09T13:55:05;14.00;;;10.27;;
15153;SDS011;7677;41.896;25.004;2023-05-09T13:57:34;10.63;;;8.17;;
15153;SDS011;7677;41.896;25.004;2023-05-09T14:00:01;16.23;;;10.93;;
15153;SDS011;7677;41.896;25.004;2023-05-09T14:02:29;14.50;;;9.87;;
15153;SDS011;7677;41.896;25.004;2023-05-09T14:04:58;11.53;;;9.73;;
15153;SDS011;7677;41.896;25.004;2023-05-09T14:07:27;11.57;;;9.53;;
15153;SDS011;7677;41.896;25.004;2023-05-09T14:09:54;18.43;;;10.67;;
15153;SDS011;7677;41.896;25.004;2023-05-09T14:12:22;11.57;;;9.67;;
15153;SDS011;7677;41.896;25.004;2023-05-09T14:14:49;13.50;;;10.20;;
15153;SDS011;7677;41.896;25.004;2023-05-09T14:17:17;12.10;;;9.20;;
15153;SDS011;7677;41.896;25.004;2023-05-09T14:19:44;11.73;;;8.97;;
15153;SDS011;7677;41.896;25.004;2023-05-09T14:22:13;12.97;;;10.50;;
15153;SDS011;7677;41.896;25.004;2023-05-09T14:24:41;12.60;;;10.50;;
15153;SDS011;7677;41.896;25.004;2023-05-09T14:27:09;11.70;;;10.27;;
15153;SDS011;7677;41.896;25.004;2023-05-09T14:29:36;13.50;;;10.50;;
15153;SDS011;7677;41.896;25.004;2023-05-09T14:32:04;14.07;;;9.47;;
15153;SDS011;7677;41.896;25.004;2023-05-09T14:34:36;12.57;;;8.47;;
15153;SDS011;7677;41.896;25.004;2023-05-09T14:37:04;13.20;;;10.87;;
15153;SDS011;7677;41.896;25.004;2023-05-09T14:39:39;14.63;;;11.43;;
15153;SDS011;7677;41.896;25.004;2023-05-09T14:42:06;13.73;;;10.07;;
15153;SDS011;7677;41.896;25.004;2023-05-09T14:44:35;12.13;;;10.07;;
15153;SDS011;7677;41.896;25.004;2023-05-09T14:47:03;9.67;;;8.57;;
15153;SDS011;7677;41.896;25.004;2023-05-09T14:49:30;10.80;;;9.13;;
15153;SDS011;7677;41.896;25.004;2023-05-09T14:51:58;13.93;;;9.67;;
15153;SDS011;7677;41.896;25.004;2023-05-09T14:54:25;12.00;;;10.67;;
15153;SDS011;7677;41.896;25.004;2023-05-09T14:56:54;13.63;;;10.57;;